sensor_id;sensor_type;location;lat;lon;timestamp;temperature;humidity
67777;DHT22;54576;52.020;5.536;2023-09-08T00:02:25;19.20;99.90
67777;DHT22;54576;52.020;5.536;2023-09-08T00:04:51;19.10;99.90
67777;DHT22;54576;52.020;5.536;2023-09-08T00:07:16;19.20;99.90
67777;DHT22;54576;52.020;5.536;2023-09-08T00:09:42;19.20;99.90
67777;DHT22;54576;52.020;5.536;2023-09-08T00:12:08;19.20;99.90
67777;DHT22;54576;52.020;5.536;2023-09-08T00:14:33;19.20;99.90
67777;DHT22;54576;52.020;5.536;2023-09-08T00:16:59;19.20;99.90
67777;DHT22;54576;52.020;5.536;2023-09-08T00:19:25;19.20;99.90
67777;DHT22;54576;52.020;5.536;2023-09-08T00:21:51;19.20;99.90
67777;DHT22;54576;52.020;5.536;2023-09-08T00:24:16;19.20;99.90
67777;DHT22;54576;52.020;5.536;2023-09-08T00:26:43;19.20;99.90
67777;DHT22;54576;52.020;5.536;2023-09-08T00:29:08;19.30;99.90
67777;DHT22;54576;52.020;5.536;2023-09-08T00:31:34;19.20;97.20
67777;DHT22;54576;52.020;5.536;2023-09-08T00:34:00;19.30;99.90
67777;DHT22;54576;52.020;5.536;2023-09-08T00:36:25;19.30;99.90
67777;DHT22;54576;52.020;5.536;2023-09-08T00:38:51;19.30;99.90
67777;DHT22;54576;52.020;5.536;2023-09-08T00:41:16;19.20;99.90
67777;DHT22;54576;52.020;5.536;2023-09-08T00:43:42;19.30;99.90
67777;DHT22;54576;52.020;5.536;2023-09-08T00:46:08;19.30;99.90
67777;DHT22;54576;52.020;5.536;2023-09-08T00:48:34;19.20;99.90
67777;DHT22;54576;52.020;5.536;2023-09-08T00:51:01;19.20;99.90
67777;DHT22;54576;52.020;5.536;2023-09-08T00:53:27;19.10;99.90
67777;DHT22;54576;52.020;5.536;2023-09-08T00:55:53;19.10;99.90
67777;DHT22;54576;52.020;5.536;2023-09-08T00:58:19;19.00;99.90
67777;DHT22;54576;52.020;5.536;2023-09-08T01:00:45;19.10;99.90
67777;DHT22;54576;52.020;5.536;2023-09-08T01:03:13;19.00;99.90
67777;DHT22;54576;52.020;5.536;2023-09-08T01:05:39;19.10;99.90
67777;DHT22;54576;52.020;5.536;2023-09-08T01:08:05;19.00;99.90
67777;DHT22;54576;52.020;5.536;2023-09-08T01:10:32;19.00;99.90
67777;DHT22;54576;52.020;5.536;2023-09-08T01:12:58;19.10;99.90
67777;DHT22;54576;52.020;5.536;2023-09-08T01:15:23;19.00;99.90
67777;DHT22;54576;52.020;5.536;2023-09-08T01:17:49;19.00;99.90
67777;DHT22;54576;52.020;5.536;2023-09-08T01:20:22;19.10;99.90
67777;DHT22;54576;52.020;5.536;2023-09-08T01:28:19;18.90;99.90
67777;DHT22;54576;52.020;5.536;2023-09-08T01:30:45;18.90;99.90
67777;DHT22;54576;52.020;5.536;2023-09-08T01:33:11;18.90;99.90
67777;DHT22;54576;52.020;5.536;2023-09-08T01:47:50;18.80;99.90
67777;DHT22;54576;52.020;5.536;2023-09-08T01:50:16;18.80;99.90
67777;DHT22;54576;52.020;5.536;2023-09-08T01:52:47;18.80;99.90
67777;DHT22;54576;52.020;5.536;2023-09-08T01:55:12;18.70;99.90
67777;DHT22;54576;52.020;5.536;2023-09-08T01:57:38;18.70;99.90
67777;DHT22;54576;52.020;5.536;2023-09-08T02:00:04;18.70;99.90
67777;DHT22;54576;52.020;5.536;2023-09-08T02:02:30;18.80;99.90
67777;DHT22;54576;52.020;5.536;2023-09-08T02:04:56;18.70;99.90
67777;DHT22;54576;52.020;5.536;2023-09-08T02:07:22;18.60;99.90
67777;DHT22;54576;52.020;5.536;2023-09-08T02:09:47;18.60;99.90
67777;DHT22;54576;52.020;5.536;2023-09-08T02:12:13;18.60;99.90
67777;DHT22;54576;52.020;5.536;2023-09-08T02:14:39;18.60;99.90
67777;DHT22;54576;52.020;5.536;2023-09-08T02:17:04;18.60;99.90
67777;DHT22;54576;52.020;5.536;2023-09-08T02:36:33;18.50;99.90
67777;DHT22;54576;52.020;5.536;2023-09-08T02:38:59;18.50;99.90
67777;DHT22;54576;52.020;5.536;2023-09-08T02:41:24;18.50;99.90
67777;DHT22;54576;52.020;5.536;2023-09-08T02:43:50;18.50;99.90
67777;DHT22;54576;52.020;5.536;2023-09-08T02:46:16;18.50;99.90
67777;DHT22;54576;52.020;5.536;2023-09-08T02:48:41;18.40;99.90
67777;DHT22;54576;52.020;5.536;2023-09-08T02:51:07;18.40;99.90
67777;DHT22;54576;52.020;5.536;2023-09-08T03:13:09;18.30;99.90
67777;DHT22;54576;52.020;5.536;2023-09-08T05:46:53;18.00;99.90
67777;DHT22;54576;52.020;5.536;2023-09-08T05:49:19;18.10;99.90
67777;DHT22;54576;52.020;5.536;2023-09-08T05:51:45;18.20;99.90
67777;DHT22;54576;52.020;5.536;2023-09-08T05:54:10;18.30;99.90
67777;DHT22;54576;52.020;5.536;2023-09-08T05:56:37;18.40;99.90
67777;DHT22;54576;52.020;5.536;2023-09-08T05:59:03;18.60;99.90
67777;DHT22;54576;52.020;5.536;2023-09-08T06:01:32;18.70;99.90
67777;DHT22;54576;52.020;5.536;2023-09-08T06:03:58;18.80;99.90
67777;DHT22;54576;52.020;5.536;2023-09-08T06:06:24;18.80;99.90
67777;DHT22;54576;52.020;5.536;2023-09-08T06:08:50;18.90;99.90
67777;DHT22;54576;52.020;5.536;2023-09-08T06:11:16;19.10;99.90
67777;DHT22;54576;52.020;5.536;2023-09-08T06:13:41;19.30;99.90
67777;DHT22;54576;52.020;5.536;2023-09-08T06:16:10;19.70;99.90
67777;DHT22;54576;52.020;5.536;2023-09-08T06:18:36;20.00;98.80
67777;DHT22;54576;52.020;5.536;2023-09-08T06:21:08;20.40;97.30
67777;DHT22;54576;52.020;5.536;2023-09-08T06:23:34;20.90;99.90
67777;DHT22;54576;52.020;5.536;2023-09-08T06:26:00;21.10;95.10
67777;DHT22;54576;52.020;5.536;2023-09-08T06:28:27;21.10;94.80
67777;DHT22;54576;52.020;5.536;2023-09-08T06:30:53;21.30;99.90
67777;DHT22;54576;52.020;5.536;2023-09-08T06:33:19;21.20;99.90
67777;DHT22;54576;52.020;5.536;2023-09-08T06:35:47;21.20;99.90
67777;DHT22;54576;52.020;5.536;2023-09-08T06:38:12;21.50;96.80
67777;DHT22;54576;52.020;5.536;2023-09-08T06:40:39;22.10;94.70
67777;DHT22;54576;52.020;5.536;2023-09-08T06:43:05;22.60;93.30
67777;DHT22;54576;52.020;5.536;2023-09-08T06:45:30;23.00;92.40
67777;DHT22;54576;52.020;5.536;2023-09-08T06:47:56;23.40;91.40
67777;DHT22;54576;52.020;5.536;2023-09-08T06:50:22;23.70;90.70
67777;DHT22;54576;52.020;5.536;2023-09-08T06:52:49;23.90;90.20
67777;DHT22;54576;52.020;5.536;2023-09-08T07:00:08;24.40;99.90
67777;DHT22;54576;52.020;5.536;2023-09-08T07:05:00;24.30;79.30
67777;DHT22;54576;52.020;5.536;2023-09-08T07:07:31;24.30;80.70
67777;DHT22;54576;52.020;5.536;2023-09-08T07:09:57;23.80;81.80
67777;DHT22;54576;52.020;5.536;2023-09-08T07:12:25;23.50;84.30
67777;DHT22;54576;52.020;5.536;2023-09-08T07:14:51;23.20;86.50
67777;DHT22;54576;52.020;5.536;2023-09-08T07:19:42;22.80;83.90
67777;DHT22;54576;52.020;5.536;2023-09-08T07:22:08;22.70;89.90
67777;DHT22;54576;52.020;5.536;2023-09-08T07:24:34;22.60;90.30
67777;DHT22;54576;52.020;5.536;2023-09-08T07:26:59;22.50;90.40
67777;DHT22;54576;52.020;5.536;2023-09-08T07:29:26;22.60;90.20
67777;DHT22;54576;52.020;5.536;2023-09-08T07:31:51;22.50;90.00
67777;DHT22;54576;52.020;5.536;2023-09-08T07:34:17;22.50;90.90
67777;DHT22;54576;52.020;5.536;2023-09-08T07:36:43;22.60;98.10
67777;DHT22;54576;52.020;5.536;2023-09-08T07:39:08;22.50;89.90
67777;DHT22;54576;52.020;5.536;2023-09-08T07:44:00;22.50;89.90
67777;DHT22;54576;52.020;5.536;2023-09-08T07:46:26;22.50;90.40
67777;DHT22;54576;52.020;5.536;2023-09-08T07:48:52;22.60;90.40
67777;DHT22;54576;52.020;5.536;2023-09-08T07:51:18;22.70;89.20
67777;DHT22;54576;52.020;5.536;2023-09-08T07:53:43;22.80;88.20
67777;DHT22;54576;52.020;5.536;2023-09-08T07:56:09;22.80;88.50
67777;DHT22;54576;52.020;5.536;2023-09-08T07:58:34;22.90;87.80
67777;DHT22;54576;52.020;5.536;2023-09-08T08:01:00;22.90;87.30
67777;DHT22;54576;52.020;5.536;2023-09-08T08:03:26;22.90;88.10
67777;DHT22;54576;52.020;5.536;2023-09-08T08:05:51;22.90;87.70
67777;DHT22;54576;52.020;5.536;2023-09-08T08:08:17;22.90;88.90
67777;DHT22;54576;52.020;5.536;2023-09-08T08:10:42;23.00;88.90
67777;DHT22;54576;52.020;5.536;2023-09-08T08:13:08;23.00;87.90
67777;DHT22;54576;52.020;5.536;2023-09-08T08:15:36;23.20;88.10
67777;DHT22;54576;52.020;5.536;2023-09-08T08:18:03;23.30;86.50
67777;DHT22;54576;52.020;5.536;2023-09-08T08:20:28;23.40;86.20
67777;DHT22;54576;52.020;5.536;2023-09-08T08:22:57;23.50;85.50
67777;DHT22;54576;52.020;5.536;2023-09-08T08:25:22;23.60;85.00
67777;DHT22;54576;52.020;5.536;2023-09-08T08:27:48;23.60;85.20
67777;DHT22;54576;52.020;5.536;2023-09-08T08:30:13;23.60;85.10
67777;DHT22;54576;52.020;5.536;2023-09-08T08:32:39;23.70;84.60
67777;DHT22;54576;52.020;5.536;2023-09-08T08:35:05;23.80;84.30
67777;DHT22;54576;52.020;5.536;2023-09-08T08:37:31;23.90;83.10
67777;DHT22;54576;52.020;5.536;2023-09-08T08:39:56;24.00;83.30
67777;DHT22;54576;52.020;5.536;2023-09-08T08:42:22;24.10;82.60
67777;DHT22;54576;52.020;5.536;2023-09-08T08:44:48;24.20;82.90
67777;DHT22;54576;52.020;5.536;2023-09-08T08:47:16;24.20;82.90
67777;DHT22;54576;52.020;5.536;2023-09-08T08:49:44;24.30;83.90
67777;DHT22;54576;52.020;5.536;2023-09-08T08:52:12;24.40;83.20
67777;DHT22;54576;52.020;5.536;2023-09-08T08:54:39;24.50;82.90
67777;DHT22;54576;52.020;5.536;2023-09-08T08:57:05;24.60;82.50
67777;DHT22;54576;52.020;5.536;2023-09-08T08:59:32;24.70;82.10
67777;DHT22;54576;52.020;5.536;2023-09-08T09:01:58;24.80;81.80
67777;DHT22;54576;52.020;5.536;2023-09-08T09:04:28;24.90;81.20
67777;DHT22;54576;52.020;5.536;2023-09-08T09:06:54;24.90;80.90
67777;DHT22;54576;52.020;5.536;2023-09-08T09:09:20;25.00;81.10
67777;DHT22;54576;52.020;5.536;2023-09-08T09:11:46;25.00;80.90
67777;DHT22;54576;52.020;5.536;2023-09-08T09:14:12;25.10;80.40
67777;DHT22;54576;52.020;5.536;2023-09-08T09:16:41;25.20;80.30
67777;DHT22;54576;52.020;5.536;2023-09-08T09:19:07;25.20;79.40
67777;DHT22;54576;52.020;5.536;2023-09-08T09:21:42;25.30;80.40
67777;DHT22;54576;52.020;5.536;2023-09-08T09:24:14;25.30;79.90
67777;DHT22;54576;52.020;5.536;2023-09-08T09:26:39;25.40;79.40
67777;DHT22;54576;52.020;5.536;2023-09-08T09:29:14;25.40;80.00
67777;DHT22;54576;52.020;5.536;2023-09-08T09:32:06;25.50;79.50
67777;DHT22;54576;52.020;5.536;2023-09-08T09:34:33;25.70;91.70
67777;DHT22;54576;52.020;5.536;2023-09-08T09:36:59;25.70;79.20
67777;DHT22;54576;52.020;5.536;2023-09-08T09:39:25;25.80;80.00
67777;DHT22;54576;52.020;5.536;2023-09-08T09:41:57;25.90;78.00
67777;DHT22;54576;52.020;5.536;2023-09-08T09:44:24;25.90;77.90
67777;DHT22;54576;52.020;5.536;2023-09-08T09:46:53;26.00;77.60
67777;DHT22;54576;52.020;5.536;2023-09-08T09:49:20;26.10;77.40
67777;DHT22;54576;52.020;5.536;2023-09-08T09:51:50;26.20;77.20
67777;DHT22;54576;52.020;5.536;2023-09-08T09:54:16;26.30;75.70
67777;DHT22;54576;52.020;5.536;2023-09-08T09:59:09;26.40;90.90
67777;DHT22;54576;52.020;5.536;2023-09-08T10:01:39;26.40;99.90
67777;DHT22;54576;52.020;5.536;2023-09-08T10:04:06;26.50;99.90
67777;DHT22;54576;52.020;5.536;2023-09-08T10:06:41;26.60;99.90
67777;DHT22;54576;52.020;5.536;2023-09-08T10:09:07;26.60;99.90
67777;DHT22;54576;52.020;5.536;2023-09-08T10:11:44;26.70;99.90
67777;DHT22;54576;52.020;5.536;2023-09-08T10:16:39;26.80;99.90
67777;DHT22;54576;52.020;5.536;2023-09-08T10:19:11;26.80;99.90
67777;DHT22;54576;52.020;5.536;2023-09-08T10:21:41;26.80;99.90
67777;DHT22;54576;52.020;5.536;2023-09-08T10:24:15;26.90;93.50
67777;DHT22;54576;52.020;5.536;2023-09-08T10:26:44;26.90;72.70
67777;DHT22;54576;52.020;5.536;2023-09-08T10:29:12;27.00;95.10
67777;DHT22;54576;52.020;5.536;2023-09-08T10:31:39;27.00;97.90
67777;DHT22;54576;52.020;5.536;2023-09-08T10:34:05;27.00;73.60
67777;DHT22;54576;52.020;5.536;2023-09-08T10:36:31;27.10;73.00
67777;DHT22;54576;52.020;5.536;2023-09-08T10:39:34;27.10;72.90
67777;DHT22;54576;52.020;5.536;2023-09-08T11:14:17;27.80;99.90
67777;DHT22;54576;52.020;5.536;2023-09-08T11:21:36;28.00;99.90
67777;DHT22;54576;52.020;5.536;2023-09-08T11:24:02;28.10;70.60
67777;DHT22;54576;52.020;5.536;2023-09-08T11:26:33;28.10;70.30
67777;DHT22;54576;52.020;5.536;2023-09-08T12:38:08;29.40;99.90
67777;DHT22;54576;52.020;5.536;2023-09-08T14:16:05;30.10;90.50
67777;DHT22;54576;52.020;5.536;2023-09-08T14:18:30;30.10;63.80
67777;DHT22;54576;52.020;5.536;2023-09-08T14:20:56;30.10;62.90
67777;DHT22;54576;52.020;5.536;2023-09-08T14:23:22;30.20;63.20
67777;DHT22;54576;52.020;5.536;2023-09-08T14:25:47;30.20;63.20
67777;DHT22;54576;52.020;5.536;2023-09-08T14:28:13;30.20;63.10
67777;DHT22;54576;52.020;5.536;2023-09-08T14:30:39;30.20;63.00
67777;DHT22;54576;52.020;5.536;2023-09-08T14:33:06;30.20;62.90
67777;DHT22;54576;52.020;5.536;2023-09-08T14:35:32;30.20;62.60
67777;DHT22;54576;52.020;5.536;2023-09-08T14:37:58;30.20;62.60
67777;DHT22;54576;52.020;5.536;2023-09-08T14:40:24;30.20;62.60
67777;DHT22;54576;52.020;5.536;2023-09-08T14:42:49;30.20;62.60
67777;DHT22;54576;52.020;5.536;2023-09-08T14:47:41;30.20;61.80
67777;DHT22;54576;52.020;5.536;2023-09-08T14:50:07;30.20;62.30
67777;DHT22;54576;52.020;5.536;2023-09-08T14:52:33;30.20;62.30
67777;DHT22;54576;52.020;5.536;2023-09-08T14:54:58;30.20;62.20
67777;DHT22;54576;52.020;5.536;2023-09-08T14:57:24;30.20;62.30
67777;DHT22;54576;52.020;5.536;2023-09-08T14:59:49;30.20;62.30
67777;DHT22;54576;52.020;5.536;2023-09-08T15:02:22;30.20;62.00
67777;DHT22;54576;52.020;5.536;2023-09-08T15:04:48;30.10;62.00
67777;DHT22;54576;52.020;5.536;2023-09-08T15:07:14;30.10;61.80
67777;DHT22;54576;52.020;5.536;2023-09-08T15:09:42;30.10;61.40
67777;DHT22;54576;52.020;5.536;2023-09-08T15:12:08;30.10;61.30
67777;DHT22;54576;52.020;5.536;2023-09-08T15:14:33;30.00;61.70
67777;DHT22;54576;52.020;5.536;2023-09-08T15:16:59;30.00;61.90
67777;DHT22;54576;52.020;5.536;2023-09-08T15:19:24;30.00;61.90
67777;DHT22;54576;52.020;5.536;2023-09-08T15:21:50;30.00;61.90
67777;DHT22;54576;52.020;5.536;2023-09-08T15:26:42;30.00;60.90
67777;DHT22;54576;52.020;5.536;2023-09-08T15:29:07;30.00;61.70
67777;DHT22;54576;52.020;5.536;2023-09-08T15:31:33;30.00;61.60
67777;DHT22;54576;52.020;5.536;2023-09-08T15:33:59;30.00;61.70
67777;DHT22;54576;52.020;5.536;2023-09-08T15:36:24;29.90;61.60
67777;DHT22;54576;52.020;5.536;2023-09-08T15:38:50;29.90;61.70
67777;DHT22;54576;52.020;5.536;2023-09-08T15:41:16;29.90;61.70
67777;DHT22;54576;52.020;5.536;2023-09-08T15:43:45;29.90;61.70
67777;DHT22;54576;52.020;5.536;2023-09-08T15:46:11;29.80;61.70
67777;DHT22;54576;52.020;5.536;2023-09-08T15:48:37;29.80;61.90
67777;DHT22;54576;52.020;5.536;2023-09-08T15:55:56;29.80;61.10
67777;DHT22;54576;52.020;5.536;2023-09-08T15:58:22;29.80;61.80
67777;DHT22;54576;52.020;5.536;2023-09-08T16:00:47;29.80;61.80
67777;DHT22;54576;52.020;5.536;2023-09-08T16:03:13;29.80;61.90
67777;DHT22;54576;52.020;5.536;2023-09-08T16:05:39;29.80;62.10
67777;DHT22;54576;52.020;5.536;2023-09-08T16:12:57;29.70;61.30
67777;DHT22;54576;52.020;5.536;2023-09-08T16:15:23;29.70;62.30
67777;DHT22;54576;52.020;5.536;2023-09-08T16:17:49;29.70;62.30
67777;DHT22;54576;52.020;5.536;2023-09-08T16:20:15;29.70;62.20
67777;DHT22;54576;52.020;5.536;2023-09-08T16:22:41;29.60;62.20
67777;DHT22;54576;52.020;5.536;2023-09-08T16:25:06;29.60;62.30
67777;DHT22;54576;52.020;5.536;2023-09-08T16:27:32;29.60;62.30
67777;DHT22;54576;52.020;5.536;2023-09-08T16:30:01;29.60;62.40
67777;DHT22;54576;52.020;5.536;2023-09-08T16:32:26;29.50;62.20
67777;DHT22;54576;52.020;5.536;2023-09-08T16:34:52;29.50;62.40
67777;DHT22;54576;52.020;5.536;2023-09-08T16:37:18;29.50;62.50
67777;DHT22;54576;52.020;5.536;2023-09-08T16:39:47;29.40;62.30
67777;DHT22;54576;52.020;5.536;2023-09-08T16:42:12;29.40;62.60
67777;DHT22;54576;52.020;5.536;2023-09-08T16:54:25;29.20;99.80
67777;DHT22;54576;52.020;5.536;2023-09-08T16:56:51;29.10;63.80
67777;DHT22;54576;52.020;5.536;2023-09-08T16:59:16;29.00;64.00
67777;DHT22;54576;52.020;5.536;2023-09-08T17:36:00;27.90;99.90
67777;DHT22;54576;52.020;5.536;2023-09-08T17:38:25;27.80;99.90
67777;DHT22;54576;52.020;5.536;2023-09-08T17:40:51;27.60;99.90
67777;DHT22;54576;52.020;5.536;2023-09-08T17:43:16;27.50;99.90
67777;DHT22;54576;52.020;5.536;2023-09-08T17:45:44;27.30;99.90
67777;DHT22;54576;52.020;5.536;2023-09-08T17:48:10;27.20;99.90
67777;DHT22;54576;52.020;5.536;2023-09-08T17:50:35;27.10;99.90
67777;DHT22;54576;52.020;5.536;2023-09-08T17:53:01;27.00;99.90
67777;DHT22;54576;52.020;5.536;2023-09-08T17:55:30;26.90;99.90
67777;DHT22;54576;52.020;5.536;2023-09-08T17:57:56;26.70;99.90
67777;DHT22;54576;52.020;5.536;2023-09-08T18:00:21;26.70;99.90
67777;DHT22;54576;52.020;5.536;2023-09-08T18:02:59;26.50;99.90
67777;DHT22;54576;52.020;5.536;2023-09-08T18:05:25;26.40;99.90
67777;DHT22;54576;52.020;5.536;2023-09-08T18:07:51;26.30;99.90
67777;DHT22;54576;52.020;5.536;2023-09-08T18:10:17;26.20;99.90
67777;DHT22;54576;52.020;5.536;2023-09-08T19:48:05;23.40;99.90
67777;DHT22;54576;52.020;5.536;2023-09-08T19:50:31;23.40;99.90
67777;DHT22;54576;52.020;5.536;2023-09-08T19:52:56;23.30;99.90
67777;DHT22;54576;52.020;5.536;2023-09-08T19:55:22;23.20;99.90
67777;DHT22;54576;52.020;5.536;2023-09-08T19:57:47;23.10;99.90
67777;DHT22;54576;52.020;5.536;2023-09-08T20:00:14;23.00;99.90
67777;DHT22;54576;52.020;5.536;2023-09-08T20:02:40;23.00;99.90
67777;DHT22;54576;52.020;5.536;2023-09-08T20:05:09;23.00;99.90
67777;DHT22;54576;52.020;5.536;2023-09-08T20:07:36;22.90;99.90
67777;DHT22;54576;52.020;5.536;2023-09-08T20:10:04;22.80;99.90
67777;DHT22;54576;52.020;5.536;2023-09-08T20:12:29;22.80;99.90
67777;DHT22;54576;52.020;5.536;2023-09-08T20:14:55;22.80;99.90
67777;DHT22;54576;52.020;5.536;2023-09-08T20:17:21;22.80;99.90
67777;DHT22;54576;52.020;5.536;2023-09-08T20:19:46;22.80;99.90
67777;DHT22;54576;52.020;5.536;2023-09-08T20:22:12;22.70;99.90
67777;DHT22;54576;52.020;5.536;2023-09-08T20:24:37;22.70;99.90
67777;DHT22;54576;52.020;5.536;2023-09-08T20:27:05;22.60;99.90
67777;DHT22;54576;52.020;5.536;2023-09-08T20:29:34;22.60;99.90
67777;DHT22;54576;52.020;5.536;2023-09-08T20:31:59;22.50;99.90
67777;DHT22;54576;52.020;5.536;2023-09-08T20:34:25;22.50;99.90
67777;DHT22;54576;52.020;5.536;2023-09-08T20:36:52;22.40;99.90
67777;DHT22;54576;52.020;5.536;2023-09-08T20:39:19;22.40;99.90
67777;DHT22;54576;52.020;5.536;2023-09-08T20:41:46;22.30;99.90
67777;DHT22;54576;52.020;5.536;2023-09-08T20:44:14;22.30;99.90
67777;DHT22;54576;52.020;5.536;2023-09-08T20:46:40;22.30;99.90
67777;DHT22;54576;52.020;5.536;2023-09-08T20:49:09;22.40;99.90
67777;DHT22;54576;52.020;5.536;2023-09-08T20:51:35;22.20;99.90
67777;DHT22;54576;52.020;5.536;2023-09-08T20:54:00;22.30;99.90
67777;DHT22;54576;52.020;5.536;2023-09-08T20:56:28;22.30;99.90
67777;DHT22;54576;52.020;5.536;2023-09-08T20:58:54;22.10;99.90
67777;DHT22;54576;52.020;5.536;2023-09-08T21:01:20;22.30;99.90
67777;DHT22;54576;52.020;5.536;2023-09-08T21:03:45;22.10;99.90
67777;DHT22;54576;52.020;5.536;2023-09-08T21:06:11;22.20;99.90
67777;DHT22;54576;52.020;5.536;2023-09-08T21:08:38;22.00;99.90
67777;DHT22;54576;52.020;5.536;2023-09-08T21:11:03;22.00;99.90
67777;DHT22;54576;52.020;5.536;2023-09-08T21:13:29;22.10;99.90
67777;DHT22;54576;52.020;5.536;2023-09-08T21:15:55;21.90;99.90
67777;DHT22;54576;52.020;5.536;2023-09-08T21:18:21;22.00;99.90
67777;DHT22;54576;52.020;5.536;2023-09-08T21:20:47;22.00;99.90
67777;DHT22;54576;52.020;5.536;2023-09-08T21:23:13;21.80;99.90
67777;DHT22;54576;52.020;5.536;2023-09-08T21:25:38;21.70;99.90
67777;DHT22;54576;52.020;5.536;2023-09-08T21:28:04;21.70;99.90
67777;DHT22;54576;52.020;5.536;2023-09-08T21:30:31;21.60;99.90
67777;DHT22;54576;52.020;5.536;2023-09-08T21:32:56;21.80;99.90
67777;DHT22;54576;52.020;5.536;2023-09-08T21:35:22;21.60;99.90
67777;DHT22;54576;52.020;5.536;2023-09-08T21:37:48;21.60;99.90
67777;DHT22;54576;52.020;5.536;2023-09-08T21:40:13;21.70;99.90
67777;DHT22;54576;52.020;5.536;2023-09-08T21:42:40;21.50;99.90
67777;DHT22;54576;52.020;5.536;2023-09-08T21:45:07;21.30;99.90
67777;DHT22;54576;52.020;5.536;2023-09-08T21:47:33;21.40;99.90
67777;DHT22;54576;52.020;5.536;2023-09-08T21:50:01;21.40;99.90
67777;DHT22;54576;52.020;5.536;2023-09-08T21:52:27;21.40;99.90
67777;DHT22;54576;52.020;5.536;2023-09-08T21:54:53;21.30;99.90
67777;DHT22;54576;52.020;5.536;2023-09-08T21:57:19;21.30;99.90
67777;DHT22;54576;52.020;5.536;2023-09-08T21:59:44;21.30;99.90
67777;DHT22;54576;52.020;5.536;2023-09-08T22:02:10;21.10;99.90
67777;DHT22;54576;52.020;5.536;2023-09-08T22:04:35;21.20;99.90
67777;DHT22;54576;52.020;5.536;2023-09-08T22:07:01;21.20;99.90
67777;DHT22;54576;52.020;5.536;2023-09-08T22:09:27;21.10;99.90
67777;DHT22;54576;52.020;5.536;2023-09-08T22:11:53;21.10;99.90
67777;DHT22;54576;52.020;5.536;2023-09-08T22:14:19;20.80;99.90
67777;DHT22;54576;52.020;5.536;2023-09-08T22:16:44;20.80;99.90
67777;DHT22;54576;52.020;5.536;2023-09-08T22:19:11;20.70;99.90
67777;DHT22;54576;52.020;5.536;2023-09-08T22:21:37;20.70;99.90
67777;DHT22;54576;52.020;5.536;2023-09-08T22:24:02;20.80;99.90
67777;DHT22;54576;52.020;5.536;2023-09-08T22:26:28;20.60;99.90
67777;DHT22;54576;52.020;5.536;2023-09-08T22:28:54;20.70;99.90
67777;DHT22;54576;52.020;5.536;2023-09-08T22:31:19;20.70;99.90
67777;DHT22;54576;52.020;5.536;2023-09-08T22:33:47;20.70;99.90
67777;DHT22;54576;52.020;5.536;2023-09-08T22:36:12;20.90;99.90
67777;DHT22;54576;52.020;5.536;2023-09-08T22:38:41;20.70;99.90
67777;DHT22;54576;52.020;5.536;2023-09-08T22:41:06;20.80;99.90
67777;DHT22;54576;52.020;5.536;2023-09-08T22:43:32;20.90;99.90
67777;DHT22;54576;52.020;5.536;2023-09-08T22:45:58;20.80;99.90
67777;DHT22;54576;52.020;5.536;2023-09-08T22:48:23;20.80;99.90
67777;DHT22;54576;52.020;5.536;2023-09-08T22:50:49;20.80;99.90
67777;DHT22;54576;52.020;5.536;2023-09-08T22:53:18;20.60;99.90
67777;DHT22;54576;52.020;5.536;2023-09-08T22:55:43;20.60;99.90
67777;DHT22;54576;52.020;5.536;2023-09-08T22:58:09;20.50;99.90
67777;DHT22;54576;52.020;5.536;2023-09-08T23:00:35;20.70;99.90
67777;DHT22;54576;52.020;5.536;2023-09-08T23:03:01;20.50;99.90
67777;DHT22;54576;52.020;5.536;2023-09-08T23:05:27;20.50;99.90
67777;DHT22;54576;52.020;5.536;2023-09-08T23:07:53;20.50;99.90
67777;DHT22;54576;52.020;5.536;2023-09-08T23:10:18;20.60;99.90
67777;DHT22;54576;52.020;5.536;2023-09-08T23:12:45;20.60;99.90
67777;DHT22;54576;52.020;5.536;2023-09-08T23:15:11;20.60;99.90
67777;DHT22;54576;52.020;5.536;2023-09-08T23:17:37;20.70;99.90
67777;DHT22;54576;52.020;5.536;2023-09-08T23:20:03;20.70;99.90
67777;DHT22;54576;52.020;5.536;2023-09-08T23:22:40;20.60;99.90
67777;DHT22;54576;52.020;5.536;2023-09-08T23:25:06;20.50;99.90
67777;DHT22;54576;52.020;5.536;2023-09-08T23:27:32;20.50;99.90
67777;DHT22;54576;52.020;5.536;2023-09-08T23:29:58;20.60;99.90
67777;DHT22;54576;52.020;5.536;2023-09-08T23:32:24;20.50;99.90
67777;DHT22;54576;52.020;5.536;2023-09-08T23:34:49;20.50;99.90
67777;DHT22;54576;52.020;5.536;2023-09-08T23:37:15;20.50;99.90
67777;DHT22;54576;52.020;5.536;2023-09-08T23:39:40;20.30;99.90
67777;DHT22;54576;52.020;5.536;2023-09-08T23:42:06;20.20;99.90
67777;DHT22;54576;52.020;5.536;2023-09-08T23:44:31;20.40;99.90
67777;DHT22;54576;52.020;5.536;2023-09-08T23:46:58;20.20;99.90
67777;DHT22;54576;52.020;5.536;2023-09-08T23:49:23;20.10;99.90
67777;DHT22;54576;52.020;5.536;2023-09-08T23:51:49;20.00;99.90
67777;DHT22;54576;52.020;5.536;2023-09-08T23:54:15;20.20;99.90
67777;DHT22;54576;52.020;5.536;2023-09-08T23:56:40;20.10;99.90
67777;DHT22;54576;52.020;5.536;2023-09-08T23:59:06;20.00;99.90
